Time;durP1;ratioP1;P1;durP2;ratioP2;P2;SDS_P1;SDS_P2;PMS_P1;PMS_P2;Temp;Humidity;BMP_temperature;BMP_pressure;BME280_temperature;BME280_humidity;BME280_pressure;Samples;Min_cycle;Max_cycle;Signal;HPM_P1;HPM_P2
2022/03/07 00:01:48;;;;;;;25.08;12.57;;;;;;;;;;5094416;28;20123;-46
2022/03/07 00:04:17;;;;;;;22.20;12.30;;;;;;;;;;5095062;28;20020;-48
2022/03/07 00:06:46;;;;;;;24.45;13.02;;;;;;;;;;5094690;28;20024;-46
2022/03/07 00:09:13;;;;;;;27.20;12.68;;;;;;;;;;5094933;28;20027;-47
2022/03/07 00:11:38;;;;;;;26.67;12.52;;;;;;;;;;5094493;28;20031;-45
2022/03/07 00:14:04;;;;;;;22.60;13.10;;;;;;;;;;5094609;28;20020;-50
2022/03/07 00:16:30;;;;;;;24.65;13.38;;;;;;;;;;5094806;28;20071;-47
2022/03/07 00:18:56;;;;;;;27.40;13.57;;;;;;;;;;5094762;28;20122;-46
2022/03/07 00:21:22;;;;;;;24.55;12.60;;;;;;;;;;5094354;28;20039;-46
2022/03/07 00:23:48;;;;;;;25.85;13.23;;;;;;;;;;5094200;28;20048;-47
2022/03/07 00:26:13;;;;;;;23.08;12.07;;;;;;;;;;5093064;28;20126;-45
2022/03/07 00:28:39;;;;;;;23.83;12.57;;;;;;;;;;5094327;28;20024;-47
2022/03/07 00:31:05;;;;;;;26.90;11.68;;;;;;;;;;5094547;28;20035;-47
2022/03/07 00:33:31;;;;;;;24.95;12.15;;;;;;;;;;5094475;28;20035;-48
2022/03/07 00:35:56;;;;;;;23.70;12.02;;;;;;;;;;5094414;28;20024;-48
2022/03/07 00:38:22;;;;;;;22.30;12.38;;;;;;;;;;5094099;28;20365;-48
2022/03/07 00:40:48;;;;;;;25.45;12.55;;;;;;;;;;5092665;28;20365;-45
2022/03/07 00:43:14;;;;;;;26.40;12.35;;;;;;;;;;5093494;28;20024;-46
2022/03/07 00:45:39;;;;;;;26.25;12.00;;;;;;;;;;5093434;28;20107;-46
2022/03/07 00:48:05;;;;;;;26.20;13.40;;;;;;;;;;5093770;28;20103;-47
2022/03/07 00:50:31;;;;;;;25.05;13.27;;;;;;;;;;5092325;28;20046;-45
2022/03/07 00:52:56;;;;;;;30.08;13.93;;;;;;;;;;5093853;28;20077;-45
2022/03/07 00:55:22;;;;;;;25.23;12.55;;;;;;;;;;5093798;28;20021;-47
2022/03/07 00:57:47;;;;;;;25.00;12.00;;;;;;;;;;5094061;28;20119;-46
2022/03/07 01:00:13;;;;;;;21.98;12.00;;;;;;;;;;5094002;28;20460;-45
2022/03/07 01:02:39;;;;;;;26.63;13.10;;;;;;;;;;5093686;28;20031;-46
2022/03/07 01:05:05;;;;;;;22.75;13.25;;;;;;;;;;5093620;28;20046;-47
2022/03/07 01:07:31;;;;;;;25.60;12.57;;;;;;;;;;5093896;28;20032;-46
2022/03/07 01:09:56;;;;;;;25.70;12.55;;;;;;;;;;5093862;28;20057;-46
2022/03/07 01:12:22;;;;;;;26.13;13.13;;;;;;;;;;5093547;28;20024;-47
2022/03/07 01:14:48;;;;;;;26.45;12.55;;;;;;;;;;5092795;28;20035;-46
2022/03/07 01:17:14;;;;;;;24.45;12.98;;;;;;;;;;5093429;28;20028;-46
2022/03/07 01:19:39;;;;;;;25.58;12.63;;;;;;;;;;5093691;28;20529;-46
2022/03/07 01:22:05;;;;;;;25.58;13.02;;;;;;;;;;5093225;28;20052;-48
2022/03/07 01:24:31;;;;;;;30.17;13.77;;;;;;;;;;5093315;28;20490;-43
2022/03/07 01:26:57;;;;;;;28.17;12.02;;;;;;;;;;5093292;28;20024;-45
2022/03/07 01:29:23;;;;;;;25.45;12.73;;;;;;;;;;5093376;28;20426;-45
2022/03/07 01:31:48;;;;;;;24.80;13.10;;;;;;;;;;5093147;28;20024;-46
2022/03/07 01:34:14;;;;;;;29.80;13.43;;;;;;;;;;5093069;28;20032;-47
2022/03/07 01:36:40;;;;;;;22.02;12.75;;;;;;;;;;5093038;28;20031;-46
2022/03/07 01:39:06;;;;;;;22.50;11.95;;;;;;;;;;5093002;28;20468;-46
2022/03/07 01:41:32;;;;;;;25.02;12.52;;;;;;;;;;5092831;28;20031;-46
2022/03/07 01:43:57;;;;;;;27.13;12.77;;;;;;;;;;5092968;28;20030;-45
2022/03/07 01:46:23;;;;;;;28.40;12.95;;;;;;;;;;5092919;28;20020;-45
2022/03/07 01:48:48;;;;;;;23.92;12.75;;;;;;;;;;5092866;28;20032;-45
2022/03/07 01:51:16;;;;;;;26.63;13.20;;;;;;;;;;5093083;28;20115;-45
2022/03/07 01:53:42;;;;;;;31.33;14.40;;;;;;;;;;5091619;28;20024;-46
2022/03/07 01:56:08;;;;;;;27.25;12.93;;;;;;;;;;5092652;28;20123;-49
2022/03/07 01:58:34;;;;;;;26.02;12.85;;;;;;;;;;5092718;28;20028;-46
2022/03/07 02:01:00;;;;;;;22.55;11.85;;;;;;;;;;5092632;28;20055;-46
2022/03/07 02:03:26;;;;;;;25.25;13.50;;;;;;;;;;5092889;28;20020;-47
2022/03/07 02:05:52;;;;;;;31.50;13.65;;;;;;;;;;5092623;28;20810;-43
2022/03/07 02:08:17;;;;;;;25.95;12.88;;;;;;;;;;5092593;28;20024;-45
2022/03/07 02:10:43;;;;;;;25.25;13.70;;;;;;;;;;5092562;28;20020;-47
2022/03/07 02:13:18;;;;;;;25.40;13.48;;;;;;;;;;5092798;28;20038;-44
2022/03/07 02:15:44;;;;;;;25.17;12.60;;;;;;;;;;5092459;28;20052;-46
2022/03/07 02:18:09;;;;;;;25.75;12.95;;;;;;;;;;5092439;28;20056;-46
2022/03/07 02:20:36;;;;;;;27.88;14.05;;;;;;;;;;5092618;28;20038;-47
2022/03/07 02:23:02;;;;;;;28.65;13.05;;;;;;;;;;5092267;28;20047;-47
2022/03/07 02:25:27;;;;;;;28.77;12.68;;;;;;;;;;5095448;28;20024;-46
2022/03/07 02:27:53;;;;;;;24.70;13.32;;;;;;;;;;5099387;28;20512;-45
2022/03/07 02:30:18;;;;;;;24.67;13.93;;;;;;;;;;5099442;28;20077;-48
2022/03/07 02:32:44;;;;;;;28.08;13.02;;;;;;;;;;5099073;28;20399;-46
2022/03/07 02:35:14;;;;;;;31.00;13.55;;;;;;;;;;5099357;28;20376;-46
2022/03/07 02:37:41;;;;;;;27.63;14.50;;;;;;;;;;5099042;28;20059;-46
2022/03/07 02:40:07;;;;;;;36.65;13.98;;;;;;;;;;5099239;28;20077;-47
2022/03/07 02:42:32;;;;;;;28.98;14.55;;;;;;;;;;5098922;28;20028;-45
2022/03/07 02:44:58;;;;;;;25.75;13.23;;;;;;;;;;5098885;28;20039;-47
2022/03/07 02:47:24;;;;;;;26.98;13.15;;;;;;;;;;5099157;28;20032;-45
2022/03/07 02:49:50;;;;;;;28.55;14.05;;;;;;;;;;5098940;28;20039;-47
2022/03/07 02:52:16;;;;;;;26.00;12.85;;;;;;;;;;5099160;28;20024;-44
2022/03/07 02:54:41;;;;;;;25.48;12.93;;;;;;;;;;5098883;28;20020;-46
2022/03/07 02:57:08;;;;;;;29.38;13.63;;;;;;;;;;5098925;28;20057;-47
2022/03/07 02:59:35;;;;;;;25.63;12.07;;;;;;;;;;5098775;28;20016;-46
2022/03/07 03:02:00;;;;;;;28.50;12.77;;;;;;;;;;5099027;28;20059;-47
2022/03/07 03:04:26;;;;;;;25.90;13.23;;;;;;;;;;5098839;28;20055;-46
2022/03/07 03:06:51;;;;;;;25.50;12.75;;;;;;;;;;5098811;28;20380;-45
2022/03/07 03:09:17;;;;;;;25.60;12.82;;;;;;;;;;5098754;28;20476;-46
2022/03/07 03:11:42;;;;;;;25.08;12.30;;;;;;;;;;5099021;28;20024;-46
2022/03/07 03:14:08;;;;;;;25.38;11.45;;;;;;;;;;5098755;28;20027;-44
2022/03/07 03:16:33;;;;;;;26.52;12.52;;;;;;;;;;5098948;28;20093;-45
2022/03/07 03:18:59;;;;;;;24.20;11.57;;;;;;;;;;5098747;28;20027;-44
2022/03/07 03:21:25;;;;;;;26.27;12.82;;;;;;;;;;5098767;28;20028;-46
2022/03/07 03:23:50;;;;;;;30.30;13.20;;;;;;;;;;5098468;28;20044;-45
2022/03/07 03:26:16;;;;;;;29.77;13.10;;;;;;;;;;5098598;28;20028;-46
2022/03/07 03:28:42;;;;;;;28.95;12.68;;;;;;;;;;5098610;28;20077;-43
2022/03/07 03:31:11;;;;;;;30.70;12.80;;;;;;;;;;5098550;28;20031;-46
2022/03/07 03:33:41;;;;;;;30.67;13.13;;;;;;;;;;5098726;28;20107;-45
2022/03/07 03:36:07;;;;;;;;;;;;;;;;;;5098804;28;20483;-43
2022/03/07 03:38:32;;;;;;;20.95;10.18;;;;;;;;;;5094803;28;19944;-46
2022/03/07 03:40:58;;;;;;;20.98;11.30;;;;;;;;;;5095245;28;20035;-46
2022/03/07 03:43:23;;;;;;;24.83;11.95;;;;;;;;;;5095187;28;20023;-46
2022/03/07 03:45:49;;;;;;;26.65;12.13;;;;;;;;;;5095157;28;20062;-46
2022/03/07 03:48:14;;;;;;;24.55;12.13;;;;;;;;;;5095459;28;20039;-46
2022/03/07 03:50:40;;;;;;;25.58;12.13;;;;;;;;;;5095327;28;20024;-47
2022/03/07 03:53:06;;;;;;;28.00;12.32;;;;;;;;;;5095353;28;20376;-43
2022/03/07 03:55:31;;;;;;;25.15;11.73;;;;;;;;;;5094850;28;20028;-46
2022/03/07 03:57:57;;;;;;;23.13;11.88;;;;;;;;;;5094945;28;20181;-44
2022/03/07 04:00:23;;;;;;;24.35;12.15;;;;;;;;;;5095188;28;20019;-48
2022/03/07 04:02:49;;;;;;;22.52;11.70;;;;;;;;;;5094759;28;20036;-45
2022/03/07 04:05:15;;;;;;;26.35;12.07;;;;;;;;;;5095076;28;20117;-45
2022/03/07 04:07:41;;;;;;;22.73;11.70;;;;;;;;;;5095117;28;20034;-47
2022/03/07 04:10:08;;;;;;;27.58;12.85;;;;;;;;;;5095117;28;20028;-43
2022/03/07 04:12:34;;;;;;;29.20;13.15;;;;;;;;;;5093395;28;20028;-44
2022/03/07 04:14:59;;;;;;;24.52;12.80;;;;;;;;;;5094863;28;20035;-43
2022/03/07 04:17:25;;;;;;;21.30;11.77;;;;;;;;;;5094541;28;20024;-45
2022/03/07 04:19:50;;;;;;;26.55;12.25;;;;;;;;;;5094484;28;20030;-46
2022/03/07 04:22:16;;;;;;;27.30;12.25;;;;;;;;;;5094385;28;20051;-46
2022/03/07 04:24:42;;;;;;;23.30;11.80;;;;;;;;;;5094804;28;20020;-45
2022/03/07 04:27:07;;;;;;;18.10;10.32;;;;;;;;;;5094378;28;20057;-48
2022/03/07 04:29:34;;;;;;;22.65;11.90;;;;;;;;;;5094401;28;20046;-46
2022/03/07 04:32:00;;;;;;;20.52;11.18;;;;;;;;;;5094470;28;20032;-46
2022/03/07 04:34:26;;;;;;;33.28;12.00;;;;;;;;;;5094499;28;20529;-46
2022/03/07 04:36:52;;;;;;;22.90;12.30;;;;;;;;;;5094462;28;20039;-46
2022/03/07 04:39:18;;;;;;;23.65;12.20;;;;;;;;;;5094074;28;20591;-46
2022/03/07 04:41:44;;;;;;;32.00;15.85;;;;;;;;;;5094111;28;20114;-46
2022/03/07 04:44:10;;;;;;;23.60;10.18;;;;;;;;;;5094107;28;20028;-45
2022/03/07 04:46:36;;;;;;;20.70;11.38;;;;;;;;;;5092656;28;20027;-46
2022/03/07 04:49:02;;;;;;;14.77;7.55;;;;;;;;;;5093801;28;20490;-45
2022/03/07 04:51:27;;;;;;;9.30;6.18;;;;;;;;;;5094088;28;20028;-44
2022/03/07 04:53:53;;;;;;;20.50;10.05;;;;;;;;;;5093885;28;20016;-48
2022/03/07 04:56:18;;;;;;;22.20;10.35;;;;;;;;;;5093809;28;20106;-46
2022/03/07 04:58:44;;;;;;;20.80;10.93;;;;;;;;;;5093956;28;20064;-44
2022/03/07 05:01:09;;;;;;;28.05;10.48;;;;;;;;;;5093576;28;20486;-45
2022/03/07 05:03:35;;;;;;;21.67;10.95;;;;;;;;;;5093896;28;20031;-47
2022/03/07 05:06:01;;;;;;;34.85;12.13;;;;;;;;;;5093899;28;20111;-48
2022/03/07 05:08:27;;;;;;;25.88;11.60;;;;;;;;;;5093824;28;20520;-46
2022/03/07 05:10:52;;;;;;;16.80;9.23;;;;;;;;;;5093764;28;20525;-44
2022/03/07 05:13:18;;;;;;;9.57;5.28;;;;;;;;;;5093550;28;20031;-47
2022/03/07 05:15:43;;;;;;;8.02;5.32;;;;;;;;;;5093383;28;20024;-45
2022/03/07 05:18:09;;;;;;;10.82;6.07;;;;;;;;;;5093547;28;20383;-46
2022/03/07 05:20:35;;;;;;;14.48;8.73;;;;;;;;;;5093457;28;20479;-45
2022/03/07 05:23:00;;;;;;;21.90;10.15;;;;;;;;;;5093157;28;20131;-46
2022/03/07 05:25:27;;;;;;;17.73;9.73;;;;;;;;;;5093448;28;20349;-49
2022/03/07 05:27:52;;;;;;;26.92;11.25;;;;;;;;;;5093176;28;20032;-47
2022/03/07 05:30:21;;;;;;;19.30;10.30;;;;;;;;;;5093194;28;20134;-45
2022/03/07 05:32:48;;;;;;;28.23;12.73;;;;;;;;;;5093140;28;20406;-46
2022/03/07 05:35:14;;;;;;;23.35;12.93;;;;;;;;;;5093327;28;20028;-47
2022/03/07 05:37:40;;;;;;;30.63;13.68;;;;;;;;;;5093197;28;20027;-47
2022/03/07 05:40:08;;;;;;;27.92;14.32;;;;;;;;;;5093042;28;20070;-47
2022/03/07 05:42:35;;;;;;;24.40;13.75;;;;;;;;;;5092923;28;20030;-48
2022/03/07 05:45:00;;;;;;;30.67;14.90;;;;;;;;;;5091747;28;20495;-48
2022/03/07 05:47:26;;;;;;;27.02;13.73;;;;;;;;;;5092891;28;20085;-48
2022/03/07 05:49:52;;;;;;;35.75;13.80;;;;;;;;;;5093145;28;20039;-48
2022/03/07 05:52:17;;;;;;;27.35;13.70;;;;;;;;;;5091786;28;20020;-46
2022/03/07 05:54:43;;;;;;;27.50;13.68;;;;;;;;;;5092734;28;20460;-49
2022/03/07 05:57:08;;;;;;;28.35;13.95;;;;;;;;;;5092672;28;20024;-50
2022/03/07 05:59:34;;;;;;;28.83;14.63;;;;;;;;;;5092477;28;20055;-47
2022/03/07 06:01:59;;;;;;;31.50;14.63;;;;;;;;;;5092550;28;20028;-49
2022/03/07 06:04:25;;;;;;;31.80;15.52;;;;;;;;;;5091290;28;20097;-50
2022/03/07 06:06:51;;;;;;;28.60;13.43;;;;;;;;;;5092769;28;20020;-48
2022/03/07 06:09:16;;;;;;;26.13;13.73;;;;;;;;;;5092775;28;20028;-47
2022/03/07 06:11:42;;;;;;;32.47;14.20;;;;;;;;;;5092493;28;20020;-44
2022/03/07 06:14:08;;;;;;;30.23;15.02;;;;;;;;;;5092499;28;20049;-45
2022/03/07 06:16:33;;;;;;;30.90;15.35;;;;;;;;;;5092820;28;20107;-46
2022/03/07 06:18:59;;;;;;;32.67;14.82;;;;;;;;;;5092563;28;20032;-48
2022/03/07 06:21:25;;;;;;;29.90;14.30;;;;;;;;;;5092407;28;20056;-45
2022/03/07 06:23:50;;;;;;;23.90;13.88;;;;;;;;;;5092360;28;20082;-46
2022/03/07 06:26:16;;;;;;;26.00;13.27;;;;;;;;;;5092376;28;20032;-50
2022/03/07 06:28:41;;;;;;;29.55;14.45;;;;;;;;;;5092680;28;20028;-46
2022/03/07 06:31:07;;;;;;;23.58;12.75;;;;;;;;;;5092290;28;20060;-47
2022/03/07 06:33:32;;;;;;;26.50;12.00;;;;;;;;;;5092305;28;20028;-48
2022/03/07 06:35:58;;;;;;;25.92;12.98;;;;;;;;;;5092369;28;20472;-47
2022/03/07 06:38:24;;;;;;;23.88;12.02;;;;;;;;;;5092475;28;20020;-46
2022/03/07 06:40:49;;;;;;;19.98;10.95;;;;;;;;;;5092129;28;20095;-49
2022/03/07 06:43:15;;;;;;;19.88;12.05;;;;;;;;;;5092502;28;20024;-47
2022/03/07 06:45:40;;;;;;;24.92;11.43;;;;;;;;;;5092174;28;20024;-48
2022/03/07 06:48:06;;;;;;;24.60;12.52;;;;;;;;;;5092202;28;20064;-47
2022/03/07 06:50:32;;;;;;;25.00;13.73;;;;;;;;;;5092189;28;20468;-45
2022/03/07 06:52:59;;;;;;;28.92;13.88;;;;;;;;;;5092408;28;20035;-46
2022/03/07 06:55:26;;;;;;;24.50;12.85;;;;;;;;;;5092194;28;20047;-46
2022/03/07 06:57:52;;;;;;;26.05;12.70;;;;;;;;;;5092376;28;20626;-47
2022/03/07 07:00:18;;;;;;;27.67;12.52;;;;;;;;;;5092078;28;20432;-47
2022/03/07 07:02:45;;;;;;;19.98;11.65;;;;;;;;;;5092288;28;20035;-48
2022/03/07 07:05:11;;;;;;;22.63;10.90;;;;;;;;;;5092295;28;20032;-49
2022/03/07 07:07:37;;;;;;;22.50;11.10;;;;;;;;;;5092316;28;20020;-46
2022/03/07 07:10:07;;;;;;;25.20;13.07;;;;;;;;;;5091846;28;20078;-46
2022/03/07 07:12:34;;;;;;;22.30;11.37;;;;;;;;;;5093240;28;20114;-46
2022/03/07 07:15:00;;;;;;;19.13;10.70;;;;;;;;;;5096055;28;20039;-47
2022/03/07 07:17:25;;;;;;;22.08;11.43;;;;;;;;;;5095710;28;20024;-46
2022/03/07 07:19:51;;;;;;;24.25;11.88;;;;;;;;;;5095667;28;20024;-46
2022/03/07 07:22:16;;;;;;;29.80;12.82;;;;;;;;;;5095350;28;20048;-46
2022/03/07 07:24:43;;;;;;;24.30;12.88;;;;;;;;;;5095914;28;20062;-48
2022/03/07 07:27:09;;;;;;;24.13;11.75;;;;;;;;;;5095468;28;20360;-49
2022/03/07 07:29:34;;;;;;;28.95;13.38;;;;;;;;;;5095790;28;20081;-46
2022/03/07 07:32:02;;;;;;;21.17;11.80;;;;;;;;;;5095356;28;20032;-51
2022/03/07 07:34:28;;;;;;;19.85;10.38;;;;;;;;;;5095407;28;20047;-43
2022/03/07 07:36:53;;;;;;;20.85;11.10;;;;;;;;;;5095509;28;20039;-46
2022/03/07 07:39:19;;;;;;;28.73;13.25;;;;;;;;;;5095289;28;20020;-49
2022/03/07 07:41:45;;;;;;;24.42;12.77;;;;;;;;;;5095269;28;20069;-43
2022/03/07 07:44:10;;;;;;;32.22;12.98;;;;;;;;;;5095429;28;20114;-47
2022/03/07 07:46:36;;;;;;;21.92;12.43;;;;;;;;;;5095235;28;20028;-47
2022/03/07 07:49:02;;;;;;;22.13;11.38;;;;;;;;;;5095126;28;20020;-48
2022/03/07 07:51:28;;;;;;;24.15;12.10;;;;;;;;;;5095150;28;20031;-48
2022/03/07 07:53:53;;;;;;;22.95;12.25;;;;;;;;;;5095342;28;20024;-52
2022/03/07 07:56:19;;;;;;;20.08;11.25;;;;;;;;;;5095383;28;20371;-49
2022/03/07 07:58:44;;;;;;;26.77;11.50;;;;;;;;;;5094977;28;20024;-51
2022/03/07 08:01:10;;;;;;;21.77;11.13;;;;;;;;;;5094762;28;20028;-47
2022/03/07 08:03:35;;;;;;;16.88;10.15;;;;;;;;;;5095069;28;20020;-45
2022/03/07 08:06:01;;;;;;;23.67;11.35;;;;;;;;;;5095693;28;20032;-49
2022/03/07 08:08:27;;;;;;;23.33;11.65;;;;;;;;;;5095545;28;20047;-46
2022/03/07 08:10:53;;;;;;;18.35;10.50;;;;;;;;;;5094375;28;20020;-50
2022/03/07 08:13:19;;;;;;;19.50;10.77;;;;;;;;;;5093532;28;20028;-49
2022/03/07 08:15:44;;;;;;;21.27;11.27;;;;;;;;;;5093502;28;20139;-47
2022/03/07 08:18:12;;;;;;;20.15;9.48;;;;;;;;;;5095200;28;20059;-50
2022/03/07 08:20:39;;;;;;;17.65;10.52;;;;;;;;;;5095035;28;20075;-50
2022/03/07 08:23:05;;;;;;;21.27;10.70;;;;;;;;;;5093505;28;20125;-47
2022/03/07 08:25:32;;;;;;;17.73;10.60;;;;;;;;;;5094541;28;20093;-48
2022/03/07 08:27:58;;;;;;;23.98;10.50;;;;;;;;;;5095082;28;20434;-50
2022/03/07 08:30:26;;;;;;;20.95;10.82;;;;;;;;;;5094815;28;20032;-51
2022/03/07 08:32:52;;;;;;;19.70;10.95;;;;;;;;;;5094646;28;20024;-50
2022/03/07 08:35:19;;;;;;;16.83;9.85;;;;;;;;;;5093368;28;20513;-51
2022/03/07 08:37:46;;;;;;;22.30;11.30;;;;;;;;;;5094618;28;20078;-49
2022/03/07 08:40:14;;;;;;;21.35;11.93;;;;;;;;;;5094699;28;20020;-48
2022/03/07 08:42:40;;;;;;;21.98;12.15;;;;;;;;;;5094372;28;20103;-50
2022/03/07 08:45:06;;;;;;;17.48;10.45;;;;;;;;;;5094450;28;20063;-47
2022/03/07 08:47:34;;;;;;;20.88;11.32;;;;;;;;;;5093097;28;20031;-51
2022/03/07 08:50:00;;;;;;;19.98;12.38;;;;;;;;;;5094243;28;20035;-50
2022/03/07 08:52:25;;;;;;;17.33;10.68;;;;;;;;;;5094142;28;20024;-51
2022/03/07 08:54:51;;;;;;;29.23;11.80;;;;;;;;;;5094233;28;20020;-50
2022/03/07 08:57:16;;;;;;;24.35;11.80;;;;;;;;;;5092894;28;20103;-47
2022/03/07 08:59:43;;;;;;;18.88;10.52;;;;;;;;;;5094436;28;20464;-49
2022/03/07 09:02:09;;;;;;;17.73;10.32;;;;;;;;;;5094006;28;20036;-48
2022/03/07 09:04:37;;;;;;;20.88;10.02;;;;;;;;;;5094124;28;20026;-47
2022/03/07 09:07:03;;;;;;;23.50;10.05;;;;;;;;;;5094041;28;20020;-50
2022/03/07 09:09:29;;;;;;;17.52;10.35;;;;;;;;;;5093841;28;20086;-47
2022/03/07 09:11:55;;;;;;;8.20;5.13;;;;;;;;;;5092583;28;20472;-46
2022/03/07 09:14:20;;;;;;;12.45;7.07;;;;;;;;;;5093817;28;20025;-48
2022/03/07 09:16:47;;;;;;;14.90;9.52;;;;;;;;;;5093908;28;20020;-49
2022/03/07 09:19:12;;;;;;;16.65;9.00;;;;;;;;;;5093769;28;20377;-48
2022/03/07 09:21:38;;;;;;;13.98;8.95;;;;;;;;;;5093549;28;20037;-49
2022/03/07 09:24:04;;;;;;;21.35;10.40;;;;;;;;;;5093481;28;20496;-55
2022/03/07 09:26:30;;;;;;;21.50;11.57;;;;;;;;;;5090638;28;20392;-49
2022/03/07 09:28:55;;;;;;;24.25;9.85;;;;;;;;;;5075281;28;20024;-51
2022/03/07 09:31:21;;;;;;;22.98;10.07;;;;;;;;;;5092307;28;20020;-50
2022/03/07 09:33:46;;;;;;;17.92;9.80;;;;;;;;;;5091579;28;20032;-49
2022/03/07 09:36:12;;;;;;;24.67;9.68;;;;;;;;;;5091120;28;20036;-49
2022/03/07 09:38:38;;;;;;;28.80;11.55;;;;;;;;;;5091908;28;20035;-47
2022/03/07 09:41:04;;;;;;;18.92;10.68;;;;;;;;;;5091802;28;20387;-47
2022/03/07 09:43:31;;;;;;;18.40;10.30;;;;;;;;;;5091446;28;20024;-47
2022/03/07 09:45:57;;;;;;;25.40;12.88;;;;;;;;;;5091451;28;20028;-48
2022/03/07 09:48:25;;;;;;;26.00;13.63;;;;;;;;;;5091560;28;20399;-55
2022/03/07 09:50:52;;;;;;;18.65;10.48;;;;;;;;;;5091436;28;20062;-50
2022/03/07 09:53:18;;;;;;;21.08;10.57;;;;;;;;;;5091635;28;20500;-52
2022/03/07 09:55:45;;;;;;;23.55;12.18;;;;;;;;;;5091499;28;20494;-50
2022/03/07 09:58:11;;;;;;;24.13;12.23;;;;;;;;;;5091584;28;20032;-52
2022/03/07 10:00:42;;;;;;;25.15;12.52;;;;;;;;;;5091301;28;20024;-50
2022/03/07 10:03:13;;;;;;;25.05;14.00;;;;;;;;;;5091391;28;20628;-49
2022/03/07 10:05:44;;;;;;;21.10;12.90;;;;;;;;;;5091174;28;20043;-50
2022/03/07 10:08:09;;;;;;;;;;;;;;;;;;5090012;28;20703;-51
2022/03/07 10:10:37;;;;;;;22.25;10.63;;;;;;;;;;5091110;28;20011;-50
2022/03/07 10:13:08;;;;;;;30.60;11.30;;;;;;;;;;5091072;28;20102;-52
2022/03/07 10:15:34;;;;;;;18.08;10.15;;;;;;;;;;5072279;28;20028;-51
2022/03/07 10:18:00;;;;;;;17.23;10.15;;;;;;;;;;5086482;28;20442;-50
2022/03/07 10:20:26;;;;;;;17.80;9.77;;;;;;;;;;5090928;28;20020;-48
2022/03/07 10:22:55;;;;;;;19.83;11.30;;;;;;;;;;5090599;28;20452;-47
2022/03/07 10:25:25;;;;;;;20.50;11.35;;;;;;;;;;5090844;28;20028;-49
2022/03/07 10:27:50;;;;;;;18.47;10.93;;;;;;;;;;5090882;28;20020;-51
2022/03/07 10:30:25;;;;;;;19.25;10.68;;;;;;;;;;5090913;28;20160;-48
2022/03/07 10:33:03;;;;;;;21.42;11.13;;;;;;;;;;5090687;28;20055;-50
2022/03/07 10:35:34;;;;;;;20.98;11.60;;;;;;;;;;5090719;28;20032;-49
2022/03/07 10:38:09;;;;;;;28.35;12.27;;;;;;;;;;5090867;28;20039;-50
2022/03/07 10:40:39;;;;;;;21.80;11.75;;;;;;;;;;5090569;28;20660;-47
2022/03/07 10:43:05;;;;;;;28.27;12.52;;;;;;;;;;5090385;28;20115;-50
2022/03/07 10:45:43;;;;;;;20.00;11.68;;;;;;;;;;5090411;28;20166;-48
2022/03/07 10:48:09;;;;;;;20.95;10.80;;;;;;;;;;5094694;28;20548;-51
2022/03/07 10:50:35;;;;;;;24.20;11.35;;;;;;;;;;5094770;28;20104;-51
2022/03/07 10:53:06;;;;;;;21.55;10.48;;;;;;;;;;5094574;28;20031;-51
2022/03/07 10:55:33;;;;;;;19.88;10.93;;;;;;;;;;5094537;28;20035;-50
2022/03/07 10:58:13;;;;;;;19.80;11.27;;;;;;;;;;5094429;28;20025;-55
2022/03/07 11:00:55;;;;;;;;;;;;;;;;;;5094910;28;20115;-46
2022/03/07 11:03:23;;;;;;;23.67;11.85;;;;;;;;;;5094473;28;20261;-50
2022/03/07 11:05:50;;;;;;;19.52;11.05;;;;;;;;;;5094540;28;20391;-50
2022/03/07 11:08:17;;;;;;;23.17;12.45;;;;;;;;;;5094475;28;20373;-54
2022/03/07 11:10:48;;;;;;;25.40;12.43;;;;;;;;;;5094575;28;20120;-53
2022/03/07 11:13:16;;;;;;;20.65;12.18;;;;;;;;;;5094231;28;20032;-47
2022/03/07 11:15:43;;;;;;;21.15;12.48;;;;;;;;;;5094158;28;20157;-50
2022/03/07 11:18:16;;;;;;;24.20;12.85;;;;;;;;;;5094466;28;20032;-53
2022/03/07 11:20:44;;;;;;;19.65;13.10;;;;;;;;;;5092798;28;20027;-47
2022/03/07 11:23:17;;;;;;;21.95;13.93;;;;;;;;;;5093617;28;20499;-49
2022/03/07 11:25:45;;;;;;;20.27;13.10;;;;;;;;;;5092822;28;20476;-51
2022/03/07 11:28:12;;;;;;;21.20;14.13;;;;;;;;;;5094132;28;20047;-48
2022/03/07 11:30:41;;;;;;;20.48;13.00;;;;;;;;;;5094266;28;20020;-50
2022/03/07 11:33:10;;;;;;;22.77;13.88;;;;;;;;;;5094272;28;20066;-51
2022/03/07 11:35:40;;;;;;;23.13;14.43;;;;;;;;;;5094143;28;20121;-47
2022/03/07 11:38:16;;;;;;;20.00;13.57;;;;;;;;;;5092738;28;20386;-48
2022/03/07 11:41:02;;;;;;;21.13;13.50;;;;;;;;;;5093786;28;20506;-51
2022/03/07 11:43:46;;;;;;;23.58;14.15;;;;;;;;;;5093988;28;20035;-52
2022/03/07 11:46:23;;;;;;;20.52;14.60;;;;;;;;;;5093694;28;20032;-47
2022/03/07 11:48:49;;;;;;;26.73;15.15;;;;;;;;;;5093417;28;20119;-47
2022/03/07 11:51:23;;;;;;;23.52;14.90;;;;;;;;;;5093628;28;20127;-49
2022/03/07 11:53:51;;;;;;;25.67;15.30;;;;;;;;;;5092452;28;20391;-48
2022/03/07 11:56:28;;;;;;;26.33;15.52;;;;;;;;;;5093441;28;20498;-51
2022/03/07 11:58:58;;;;;;;29.35;15.95;;;;;;;;;;5092520;28;20030;-53
2022/03/07 12:01:25;;;;;;;27.27;15.57;;;;;;;;;;5093252;28;20141;-49
2022/03/07 12:03:52;;;;;;;25.60;15.55;;;;;;;;;;5093244;28;20020;-50
2022/03/07 12:06:19;;;;;;;38.17;15.30;;;;;;;;;;5093173;28;20046;-54
2022/03/07 12:08:53;;;;;;;23.58;13.80;;;;;;;;;;5093489;28;20040;-48
2022/03/07 12:11:30;;;;;;;22.98;13.00;;;;;;;;;;5093199;28;20434;-48
2022/03/07 12:14:04;;;;;;;24.05;14.75;;;;;;;;;;5092131;28;20024;-49
2022/03/07 12:16:32;;;;;;;22.38;13.13;;;;;;;;;;5092303;28;20617;-49
2022/03/07 12:19:12;;;;;;;25.45;13.95;;;;;;;;;;5092929;28;20032;-52
2022/03/07 12:21:41;;;;;;;31.90;15.48;;;;;;;;;;5092704;28;20024;-52
2022/03/07 12:24:08;;;;;;;27.75;13.60;;;;;;;;;;5092555;28;20127;-51
2022/03/07 12:26:56;;;;;;;23.50;14.20;;;;;;;;;;5092693;28;20032;-48
2022/03/07 12:29:23;;;;;;;23.40;14.07;;;;;;;;;;5092788;28;20035;-50
2022/03/07 12:32:12;;;;;;;28.95;15.13;;;;;;;;;;5092482;28;20043;-50
2022/03/07 12:34:41;;;;;;;26.98;15.30;;;;;;;;;;5092698;28;20020;-46
2022/03/07 12:37:17;;;;;;;23.83;13.27;;;;;;;;;;5092843;28;20044;-54
2022/03/07 12:39:50;;;;;;;30.77;16.40;;;;;;;;;;5091700;28;20464;-54
2022/03/07 12:42:18;;;;;;;31.52;17.95;;;;;;;;;;5092477;28;20092;-53
2022/03/07 12:44:44;;;;;;;32.25;18.23;;;;;;;;;;5092400;28;20495;-49
2022/03/07 12:47:11;;;;;;;41.22;19.30;;;;;;;;;;5092386;28;20048;-53
2022/03/07 12:49:37;;;;;;;46.72;19.95;;;;;;;;;;5092688;28;20078;-50
2022/03/07 12:52:06;;;;;;;44.45;21.13;;;;;;;;;;5092238;28;20089;-53
2022/03/07 12:54:34;;;;;;;38.13;20.13;;;;;;;;;;5092176;28;20421;-48
2022/03/07 12:57:01;;;;;;;38.63;20.55;;;;;;;;;;5092186;28;20376;-44
2022/03/07 12:59:28;;;;;;;36.08;20.98;;;;;;;;;;5091524;28;20098;-52
2022/03/07 13:01:54;;;;;;;37.50;21.13;;;;;;;;;;5091558;28;20073;-44
2022/03/07 13:04:29;;;;;;;41.42;21.27;;;;;;;;;;5091870;28;20182;-47
2022/03/07 13:06:57;;;;;;;42.67;22.05;;;;;;;;;;5092460;28;20032;-49
2022/03/07 13:09:30;;;;;;;38.35;22.40;;;;;;;;;;5092683;28;20030;-47
2022/03/07 13:11:56;;;;;;;43.28;22.08;;;;;;;;;;5092920;28;20419;-53
2022/03/07 13:14:30;;;;;;;34.03;20.08;;;;;;;;;;5092500;28;20125;-46
2022/03/07 13:17:05;;;;;;;42.50;21.65;;;;;;;;;;5092607;28;20034;-47
2022/03/07 13:19:30;;;;;;;39.63;21.70;;;;;;;;;;5092678;28;20028;-47
2022/03/07 13:21:56;;;;;;;42.65;22.85;;;;;;;;;;5092470;28;20421;-45
2022/03/07 13:24:25;;;;;;;42.05;23.50;;;;;;;;;;5092262;28;20561;-51
2022/03/07 13:27:07;;;;;;;41.10;21.63;;;;;;;;;;5091011;28;20028;-45
2022/03/07 13:29:37;;;;;;;46.13;22.50;;;;;;;;;;5092345;28;20031;-49
2022/03/07 13:32:11;;;;;;;37.05;20.00;;;;;;;;;;5092253;28;20035;-51
2022/03/07 13:34:48;;;;;;;45.90;23.42;;;;;;;;;;5092241;28;20032;-47
2022/03/07 13:37:16;;;;;;;46.78;23.42;;;;;;;;;;5092325;28;20097;-52
2022/03/07 13:39:43;;;;;;;41.20;21.67;;;;;;;;;;5092048;28;20032;-49
2022/03/07 13:42:11;;;;;;;47.63;24.02;;;;;;;;;;5092077;28;20454;-49
2022/03/07 13:44:54;;;;;;;39.83;20.95;;;;;;;;;;5092176;28;20085;-49
2022/03/07 13:47:28;;;;;;;43.20;22.77;;;;;;;;;;5091655;28;20376;-43
2022/03/07 13:49:59;;;;;;;40.72;22.00;;;;;;;;;;5090906;28;20402;-44
2022/03/07 13:52:30;;;;;;;44.30;21.17;;;;;;;;;;5092168;28;20056;-48
2022/03/07 13:54:59;;;;;;;37.92;21.10;;;;;;;;;;5091922;28;20380;-46
2022/03/07 13:57:32;;;;;;;38.78;20.98;;;;;;;;;;5090283;28;20475;-44
2022/03/07 14:00:08;;;;;;;46.22;22.08;;;;;;;;;;5091372;28;20425;-47
2022/03/07 14:02:44;;;;;;;38.35;20.88;;;;;;;;;;5091724;28;20387;-50
2022/03/07 14:05:11;;;;;;;35.58;20.58;;;;;;;;;;5091316;28;20124;-48
2022/03/07 14:08:00;;;;;;;42.85;21.00;;;;;;;;;;5091574;28;20148;-52
2022/03/07 14:10:25;;;;;;;36.40;19.52;;;;;;;;;;5091145;28;20501;-55
2022/03/07 14:12:56;;;;;;;36.78;19.13;;;;;;;;;;5091668;28;20090;-50
2022/03/07 14:15:36;;;;;;;35.20;19.52;;;;;;;;;;5091627;28;20375;-50
2022/03/07 14:18:05;;;;;;;41.25;18.23;;;;;;;;;;5090702;28;20031;-51
2022/03/07 14:20:31;;;;;;;35.72;18.17;;;;;;;;;;5091006;28;20038;-49